sensor_id;sensor_type;location;lat;lon;timestamp;temperature;humidity
24232;DHT22;12364;47.810;8.810;2023-05-10T03:46:32;16.60;99.90
24232;DHT22;12364;47.810;8.810;2023-05-10T03:48:59;16.80;99.90
24232;DHT22;12364;47.810;8.810;2023-05-10T03:51:26;16.70;99.90
24232;DHT22;12364;47.810;8.810;2023-05-10T03:53:54;16.70;99.90
24232;DHT22;12364;47.810;8.810;2023-05-10T03:56:22;16.70;99.90
24232;DHT22;12364;47.810;8.810;2023-05-10T03:58:49;16.70;99.90
24232;DHT22;12364;47.810;8.810;2023-05-10T04:01:16;16.80;99.90
24232;DHT22;12364;47.810;8.810;2023-05-10T04:03:43;16.80;99.90
24232;DHT22;12364;47.810;8.810;2023-05-10T04:06:10;16.80;99.90
24232;DHT22;12364;47.810;8.810;2023-05-10T04:08:38;16.80;99.90
24232;DHT22;12364;47.810;8.810;2023-05-10T04:11:08;16.70;99.90
24232;DHT22;12364;47.810;8.810;2023-05-10T04:13:35;16.70;99.90
24232;DHT22;12364;47.810;8.810;2023-05-10T04:16:02;16.70;99.90
24232;DHT22;12364;47.810;8.810;2023-05-10T04:18:30;16.70;99.90
24232;DHT22;12364;47.810;8.810;2023-05-10T04:20:57;16.70;99.90
24232;DHT22;12364;47.810;8.810;2023-05-10T04:23:24;16.80;99.90
24232;DHT22;12364;47.810;8.810;2023-05-10T04:25:51;16.70;99.90
24232;DHT22;12364;47.810;8.810;2023-05-10T04:28:18;16.70;99.90
24232;DHT22;12364;47.810;8.810;2023-05-10T04:30:45;16.70;99.90
24232;DHT22;12364;47.810;8.810;2023-05-10T04:33:12;16.70;99.90
24232;DHT22;12364;47.810;8.810;2023-05-10T04:35:39;16.70;99.90
24232;DHT22;12364;47.810;8.810;2023-05-10T04:38:06;16.60;99.90
24232;DHT22;12364;47.810;8.810;2023-05-10T04:40:33;16.50;99.90
24232;DHT22;12364;47.810;8.810;2023-05-10T04:43:01;16.50;99.90
24232;DHT22;12364;47.810;8.810;2023-05-10T04:45:28;16.40;99.90
24232;DHT22;12364;47.810;8.810;2023-05-10T04:47:55;16.30;99.90
24232;DHT22;12364;47.810;8.810;2023-05-10T04:50:22;16.40;99.90
24232;DHT22;12364;47.810;8.810;2023-05-10T04:52:49;16.40;99.90
24232;DHT22;12364;47.810;8.810;2023-05-10T04:55:15;16.40;99.90
24232;DHT22;12364;47.810;8.810;2023-05-10T04:57:42;16.40;99.90
24232;DHT22;12364;47.810;8.810;2023-05-10T05:00:10;16.40;99.90
24232;DHT22;12364;47.810;8.810;2023-05-10T05:02:37;16.40;99.90
24232;DHT22;12364;47.810;8.810;2023-05-10T05:05:04;16.40;99.90
24232;DHT22;12364;47.810;8.810;2023-05-10T05:07:31;16.40;99.90
24232;DHT22;12364;47.810;8.810;2023-05-10T05:09:58;16.30;99.90
24232;DHT22;12364;47.810;8.810;2023-05-10T05:12:25;16.40;99.90
24232;DHT22;12364;47.810;8.810;2023-05-10T05:14:52;16.40;99.90
24232;DHT22;12364;47.810;8.810;2023-05-10T05:17:19;16.40;99.90
24232;DHT22;12364;47.810;8.810;2023-05-10T05:19:46;16.40;99.90
24232;DHT22;12364;47.810;8.810;2023-05-10T05:22:13;16.40;99.90
24232;DHT22;12364;47.810;8.810;2023-05-10T05:24:40;16.40;99.90
24232;DHT22;12364;47.810;8.810;2023-05-10T05:27:06;16.40;99.90
24232;DHT22;12364;47.810;8.810;2023-05-10T05:29:33;16.50;99.90
24232;DHT22;12364;47.810;8.810;2023-05-10T05:32:00;16.50;99.90
24232;DHT22;12364;47.810;8.810;2023-05-10T05:34:28;16.50;99.90
24232;DHT22;12364;47.810;8.810;2023-05-10T05:36:55;16.50;99.90
24232;DHT22;12364;47.810;8.810;2023-05-10T05:39:22;16.40;99.90
24232;DHT22;12364;47.810;8.810;2023-05-10T05:41:49;16.50;99.90
24232;DHT22;12364;47.810;8.810;2023-05-10T05:44:16;16.50;99.90
24232;DHT22;12364;47.810;8.810;2023-05-10T05:46:43;16.40;99.90
24232;DHT22;12364;47.810;8.810;2023-05-10T05:49:10;16.40;99.90
24232;DHT22;12364;47.810;8.810;2023-05-10T05:51:37;16.30;99.90
24232;DHT22;12364;47.810;8.810;2023-05-10T05:54:04;16.30;99.90
24232;DHT22;12364;47.810;8.810;2023-05-10T05:56:31;16.30;99.90
24232;DHT22;12364;47.810;8.810;2023-05-10T05:58:57;16.40;99.90
24232;DHT22;12364;47.810;8.810;2023-05-10T06:01:25;16.30;99.90
24232;DHT22;12364;47.810;8.810;2023-05-10T06:03:51;16.30;99.90
24232;DHT22;12364;47.810;8.810;2023-05-10T06:06:19;16.20;99.90
24232;DHT22;12364;47.810;8.810;2023-05-10T06:08:46;16.20;99.90
24232;DHT22;12364;47.810;8.810;2023-05-10T06:11:13;16.20;99.90
24232;DHT22;12364;47.810;8.810;2023-05-10T06:13:40;16.10;99.90
24232;DHT22;12364;47.810;8.810;2023-05-10T06:16:07;16.10;99.90
24232;DHT22;12364;47.810;8.810;2023-05-10T06:18:34;16.20;99.90
24232;DHT22;12364;47.810;8.810;2023-05-10T06:21:01;16.30;99.90
24232;DHT22;12364;47.810;8.810;2023-05-10T06:23:28;16.40;99.90
24232;DHT22;12364;47.810;8.810;2023-05-10T06:25:55;16.40;99.90
24232;DHT22;12364;47.810;8.810;2023-05-10T06:28:22;16.40;99.90
24232;DHT22;12364;47.810;8.810;2023-05-10T06:30:49;16.50;99.90
24232;DHT22;12364;47.810;8.810;2023-05-10T06:33:16;16.50;99.90
24232;DHT22;12364;47.810;8.810;2023-05-10T06:35:43;16.50;99.90
24232;DHT22;12364;47.810;8.810;2023-05-10T06:38:10;16.40;99.90
24232;DHT22;12364;47.810;8.810;2023-05-10T06:40:40;16.40;99.90
24232;DHT22;12364;47.810;8.810;2023-05-10T06:43:07;16.40;99.90
24232;DHT22;12364;47.810;8.810;2023-05-10T06:45:34;16.40;99.90
24232;DHT22;12364;47.810;8.810;2023-05-10T06:48:01;16.30;99.90
24232;DHT22;12364;47.810;8.810;2023-05-10T06:50:28;16.40;99.90
24232;DHT22;12364;47.810;8.810;2023-05-10T06:52:55;16.50;99.90
24232;DHT22;12364;47.810;8.810;2023-05-10T06:55:23;16.50;99.90
24232;DHT22;12364;47.810;8.810;2023-05-10T06:57:50;16.60;99.90
24232;DHT22;12364;47.810;8.810;2023-05-10T07:00:17;16.50;99.90
24232;DHT22;12364;47.810;8.810;2023-05-10T07:02:45;16.60;99.90
24232;DHT22;12364;47.810;8.810;2023-05-10T07:05:13;16.60;99.90
24232;DHT22;12364;47.810;8.810;2023-05-10T07:07:41;16.50;99.90
24232;DHT22;12364;47.810;8.810;2023-05-10T07:10:09;16.60;99.90
24232;DHT22;12364;47.810;8.810;2023-05-10T07:12:36;16.70;99.90
24232;DHT22;12364;47.810;8.810;2023-05-10T07:15:03;16.60;99.90
24232;DHT22;12364;47.810;8.810;2023-05-10T07:17:30;16.60;99.90
24232;DHT22;12364;47.810;8.810;2023-05-10T07:19:57;16.60;99.90
24232;DHT22;12364;47.810;8.810;2023-05-10T07:22:25;16.60;99.90
24232;DHT22;12364;47.810;8.810;2023-05-10T07:24:52;16.70;99.90
24232;DHT22;12364;47.810;8.810;2023-05-10T07:27:18;16.70;99.90
24232;DHT22;12364;47.810;8.810;2023-05-10T07:29:45;16.70;99.90
24232;DHT22;12364;47.810;8.810;2023-05-10T07:32:12;16.80;99.90
24232;DHT22;12364;47.810;8.810;2023-05-10T07:34:39;16.90;99.90
24232;DHT22;12364;47.810;8.810;2023-05-10T07:37:06;16.90;99.90
24232;DHT22;12364;47.810;8.810;2023-05-10T07:39:34;17.00;99.90
24232;DHT22;12364;47.810;8.810;2023-05-10T07:42:01;17.00;99.50
24232;DHT22;12364;47.810;8.810;2023-05-10T07:44:28;17.00;99.90
24232;DHT22;12364;47.810;8.810;2023-05-10T07:46:55;17.10;99.90
24232;DHT22;12364;47.810;8.810;2023-05-10T07:49:22;17.10;99.90
24232;DHT22;12364;47.810;8.810;2023-05-10T07:51:50;17.10;99.90
24232;DHT22;12364;47.810;8.810;2023-05-10T07:54:18;17.20;99.90
24232;DHT22;12364;47.810;8.810;2023-05-10T07:56:45;17.20;99.90
24232;DHT22;12364;47.810;8.810;2023-05-10T07:59:17;17.20;99.90
24232;DHT22;12364;47.810;8.810;2023-05-10T08:01:44;17.20;99.90
24232;DHT22;12364;47.810;8.810;2023-05-10T08:04:11;17.30;99.90
24232;DHT22;12364;47.810;8.810;2023-05-10T08:06:39;17.30;99.90
24232;DHT22;12364;47.810;8.810;2023-05-10T08:09:06;17.30;99.90
24232;DHT22;12364;47.810;8.810;2023-05-10T08:11:33;17.30;99.90
24232;DHT22;12364;47.810;8.810;2023-05-10T08:14:01;17.30;99.90
24232;DHT22;12364;47.810;8.810;2023-05-10T08:16:28;17.30;99.90
24232;DHT22;12364;47.810;8.810;2023-05-10T08:18:55;17.30;99.90
24232;DHT22;12364;47.810;8.810;2023-05-10T08:21:22;17.30;99.90
24232;DHT22;12364;47.810;8.810;2023-05-10T08:23:49;17.40;99.90
24232;DHT22;12364;47.810;8.810;2023-05-10T08:26:17;17.40;99.90
24232;DHT22;12364;47.810;8.810;2023-05-10T08:28:43;17.40;99.90
24232;DHT22;12364;47.810;8.810;2023-05-10T08:31:10;17.50;99.90
24232;DHT22;12364;47.810;8.810;2023-05-10T08:33:37;17.40;99.90
24232;DHT22;12364;47.810;8.810;2023-05-10T08:36:04;17.40;99.90
24232;DHT22;12364;47.810;8.810;2023-05-10T08:38:31;17.40;99.90
24232;DHT22;12364;47.810;8.810;2023-05-10T08:40:58;17.40;99.90
24232;DHT22;12364;47.810;8.810;2023-05-10T08:43:26;17.30;99.90
24232;DHT22;12364;47.810;8.810;2023-05-10T08:45:55;17.40;99.90
24232;DHT22;12364;47.810;8.810;2023-05-10T08:48:23;17.40;99.90
24232;DHT22;12364;47.810;8.810;2023-05-10T08:50:52;17.40;99.90
24232;DHT22;12364;47.810;8.810;2023-05-10T08:53:19;17.50;99.90
24232;DHT22;12364;47.810;8.810;2023-05-10T08:55:46;17.50;99.90
24232;DHT22;12364;47.810;8.810;2023-05-10T08:58:13;17.70;99.90
24232;DHT22;12364;47.810;8.810;2023-05-10T09:00:40;17.70;99.90
24232;DHT22;12364;47.810;8.810;2023-05-10T09:03:07;17.70;99.70
24232;DHT22;12364;47.810;8.810;2023-05-10T09:05:35;17.70;99.90
24232;DHT22;12364;47.810;8.810;2023-05-10T09:08:03;17.80;99.90
24232;DHT22;12364;47.810;8.810;2023-05-10T09:10:30;17.80;99.90
24232;DHT22;12364;47.810;8.810;2023-05-10T09:12:57;17.80;99.90
24232;DHT22;12364;47.810;8.810;2023-05-10T09:15:25;18.00;99.40
24232;DHT22;12364;47.810;8.810;2023-05-10T09:17:52;17.70;99.40
24232;DHT22;12364;47.810;8.810;2023-05-10T09:20:19;17.70;99.70
24232;DHT22;12364;47.810;8.810;2023-05-10T09:22:47;17.70;99.80
24232;DHT22;12364;47.810;8.810;2023-05-10T09:25:14;17.70;99.90
24232;DHT22;12364;47.810;8.810;2023-05-10T09:27:45;17.80;99.90
24232;DHT22;12364;47.810;8.810;2023-05-10T09:30:16;17.80;99.50
24232;DHT22;12364;47.810;8.810;2023-05-10T09:32:45;17.60;98.70
24232;DHT22;12364;47.810;8.810;2023-05-10T09:37:40;17.80;99.80
24232;DHT22;12364;47.810;8.810;2023-05-10T09:40:13;17.50;99.00
24232;DHT22;12364;47.810;8.810;2023-05-10T09:42:42;17.40;99.40
24232;DHT22;12364;47.810;8.810;2023-05-10T09:45:09;17.50;98.90
24232;DHT22;12364;47.810;8.810;2023-05-10T09:47:36;17.40;99.30
24232;DHT22;12364;47.810;8.810;2023-05-10T09:50:04;17.40;99.10
24232;DHT22;12364;47.810;8.810;2023-05-10T09:55:13;17.50;98.30
24232;DHT22;12364;47.810;8.810;2023-05-10T09:57:40;17.40;98.30
24232;DHT22;12364;47.810;8.810;2023-05-10T10:00:07;17.40;98.50
24232;DHT22;12364;47.810;8.810;2023-05-10T10:02:36;17.40;99.00
24232;DHT22;12364;47.810;8.810;2023-05-10T10:05:04;17.30;99.00
24232;DHT22;12364;47.810;8.810;2023-05-10T10:07:32;17.30;98.50
24232;DHT22;12364;47.810;8.810;2023-05-10T10:10:00;17.30;98.70
24232;DHT22;12364;47.810;8.810;2023-05-10T10:12:27;17.30;98.30
24232;DHT22;12364;47.810;8.810;2023-05-10T10:14:54;17.20;97.50
24232;DHT22;12364;47.810;8.810;2023-05-10T10:17:21;17.20;97.90
24232;DHT22;12364;47.810;8.810;2023-05-10T10:19:51;17.10;97.80
24232;DHT22;12364;47.810;8.810;2023-05-10T10:22:18;17.00;97.50
24232;DHT22;12364;47.810;8.810;2023-05-10T10:24:44;17.10;98.30
24232;DHT22;12364;47.810;8.810;2023-05-10T10:27:18;17.20;97.70
24232;DHT22;12364;47.810;8.810;2023-05-10T10:29:50;17.30;97.80
24232;DHT22;12364;47.810;8.810;2023-05-10T10:32:24;17.30;97.40
24232;DHT22;12364;47.810;8.810;2023-05-10T10:34:53;17.40;96.90
24232;DHT22;12364;47.810;8.810;2023-05-10T10:37:20;17.40;96.90
24232;DHT22;12364;47.810;8.810;2023-05-10T10:39:48;17.60;97.70
24232;DHT22;12364;47.810;8.810;2023-05-10T10:42:15;17.50;97.00
24232;DHT22;12364;47.810;8.810;2023-05-10T10:45:11;17.60;96.80
24232;DHT22;12364;47.810;8.810;2023-05-10T10:47:39;17.60;96.00
24232;DHT22;12364;47.810;8.810;2023-05-10T10:50:06;17.60;96.80
24232;DHT22;12364;47.810;8.810;2023-05-10T10:52:35;17.50;95.00
24232;DHT22;12364;47.810;8.810;2023-05-10T10:57:48;17.50;95.90
24232;DHT22;12364;47.810;8.810;2023-05-10T11:02:47;17.60;95.80
24232;DHT22;12364;47.810;8.810;2023-05-10T11:05:39;17.70;95.80
24232;DHT22;12364;47.810;8.810;2023-05-10T11:10:51;17.70;94.50
24232;DHT22;12364;47.810;8.810;2023-05-10T11:15:58;17.60;93.60
24232;DHT22;12364;47.810;8.810;2023-05-10T11:18:27;17.50;94.40
24232;DHT22;12364;47.810;8.810;2023-05-10T11:20:58;17.50;94.60
24232;DHT22;12364;47.810;8.810;2023-05-10T11:23:30;17.50;94.80
24232;DHT22;12364;47.810;8.810;2023-05-10T11:25:57;17.60;94.00
24232;DHT22;12364;47.810;8.810;2023-05-10T11:28:25;17.60;94.30
24232;DHT22;12364;47.810;8.810;2023-05-10T11:30:53;17.70;94.60
24232;DHT22;12364;47.810;8.810;2023-05-10T11:33:20;17.80;92.80
24232;DHT22;12364;47.810;8.810;2023-05-10T11:35:47;17.70;92.20
24232;DHT22;12364;47.810;8.810;2023-05-10T11:38:14;17.70;92.80
24232;DHT22;12364;47.810;8.810;2023-05-10T11:40:41;17.60;91.90
24232;DHT22;12364;47.810;8.810;2023-05-10T11:43:08;17.70;92.20
24232;DHT22;12364;47.810;8.810;2023-05-10T11:45:35;17.70;91.60
24232;DHT22;12364;47.810;8.810;2023-05-10T11:48:03;17.80;91.40
24232;DHT22;12364;47.810;8.810;2023-05-10T11:50:30;17.80;91.30
24232;DHT22;12364;47.810;8.810;2023-05-10T11:52:57;17.70;91.30
24232;DHT22;12364;47.810;8.810;2023-05-10T11:55:25;17.80;90.60
24232;DHT22;12364;47.810;8.810;2023-05-10T11:57:53;17.70;90.60
24232;DHT22;12364;47.810;8.810;2023-05-10T12:00:20;17.80;90.30
24232;DHT22;12364;47.810;8.810;2023-05-10T12:02:47;17.80;90.80
24232;DHT22;12364;47.810;8.810;2023-05-10T12:05:15;17.80;91.20
24232;DHT22;12364;47.810;8.810;2023-05-10T12:07:42;17.80;90.60
24232;DHT22;12364;47.810;8.810;2023-05-10T12:10:10;17.50;88.00
24232;DHT22;12364;47.810;8.810;2023-05-10T12:12:44;17.50;88.60
24232;DHT22;12364;47.810;8.810;2023-05-10T12:15:18;17.40;89.40
24232;DHT22;12364;47.810;8.810;2023-05-10T12:17:46;17.50;89.20
24232;DHT22;12364;47.810;8.810;2023-05-10T12:20:17;17.40;89.90
24232;DHT22;12364;47.810;8.810;2023-05-10T12:22:52;17.40;90.30
24232;DHT22;12364;47.810;8.810;2023-05-10T12:25:19;17.50;89.40
24232;DHT22;12364;47.810;8.810;2023-05-10T12:27:48;17.40;88.70
24232;DHT22;12364;47.810;8.810;2023-05-10T12:30:18;17.50;89.10
24232;DHT22;12364;47.810;8.810;2023-05-10T12:32:45;17.50;89.20
24232;DHT22;12364;47.810;8.810;2023-05-10T12:35:12;17.50;88.60
24232;DHT22;12364;47.810;8.810;2023-05-10T12:37:39;17.50;88.80
24232;DHT22;12364;47.810;8.810;2023-05-10T12:40:06;17.50;89.20
24232;DHT22;12364;47.810;8.810;2023-05-10T12:42:35;17.60;89.70
24232;DHT22;12364;47.810;8.810;2023-05-10T12:45:05;17.70;89.50
24232;DHT22;12364;47.810;8.810;2023-05-10T12:47:32;17.70;90.70
24232;DHT22;12364;47.810;8.810;2023-05-10T12:50:00;17.80;88.50
24232;DHT22;12364;47.810;8.810;2023-05-10T12:52:28;17.60;88.00
24232;DHT22;12364;47.810;8.810;2023-05-10T12:54:55;17.70;88.50
24232;DHT22;12364;47.810;8.810;2023-05-10T12:57:22;17.70;88.30
24232;DHT22;12364;47.810;8.810;2023-05-10T12:59:49;17.70;88.30
24232;DHT22;12364;47.810;8.810;2023-05-10T13:02:16;17.70;89.10
24232;DHT22;12364;47.810;8.810;2023-05-10T13:04:44;17.90;90.20
24232;DHT22;12364;47.810;8.810;2023-05-10T13:07:15;17.80;89.60
24232;DHT22;12364;47.810;8.810;2023-05-10T13:09:42;17.90;89.60
24232;DHT22;12364;47.810;8.810;2023-05-10T13:12:10;17.80;90.00
24232;DHT22;12364;47.810;8.810;2023-05-10T13:14:37;17.90;89.90
24232;DHT22;12364;47.810;8.810;2023-05-10T13:17:04;17.80;89.40
24232;DHT22;12364;47.810;8.810;2023-05-10T13:19:31;17.80;90.10
24232;DHT22;12364;47.810;8.810;2023-05-10T13:21:58;17.90;90.00
24232;DHT22;12364;47.810;8.810;2023-05-10T13:24:25;17.90;90.30
24232;DHT22;12364;47.810;8.810;2023-05-10T13:26:52;18.00;89.50
24232;DHT22;12364;47.810;8.810;2023-05-10T13:29:19;18.00;89.20
24232;DHT22;12364;47.810;8.810;2023-05-10T13:31:46;18.00;89.00
24232;DHT22;12364;47.810;8.810;2023-05-10T13:34:13;18.00;89.10
24232;DHT22;12364;47.810;8.810;2023-05-10T13:36:40;18.00;89.70
24232;DHT22;12364;47.810;8.810;2023-05-10T13:39:07;17.90;90.00
24232;DHT22;12364;47.810;8.810;2023-05-10T13:41:34;17.90;89.00
24232;DHT22;12364;47.810;8.810;2023-05-10T13:44:01;17.90;88.90
24232;DHT22;12364;47.810;8.810;2023-05-10T13:46:28;17.90;87.40
24232;DHT22;12364;47.810;8.810;2023-05-10T13:48:55;17.80;88.10
24232;DHT22;12364;47.810;8.810;2023-05-10T13:51:23;17.70;89.10
24232;DHT22;12364;47.810;8.810;2023-05-10T13:53:50;17.70;89.90
24232;DHT22;12364;47.810;8.810;2023-05-10T13:56:17;17.70;89.80
24232;DHT22;12364;47.810;8.810;2023-05-10T13:58:44;17.80;90.00
24232;DHT22;12364;47.810;8.810;2023-05-10T14:01:11;17.70;89.70
24232;DHT22;12364;47.810;8.810;2023-05-10T14:03:38;17.80;90.10
24232;DHT22;12364;47.810;8.810;2023-05-10T14:06:06;17.80;88.40
24232;DHT22;12364;47.810;8.810;2023-05-10T14:08:34;18.00;88.70
24232;DHT22;12364;47.810;8.810;2023-05-10T14:11:02;18.00;89.40
24232;DHT22;12364;47.810;8.810;2023-05-10T14:13:29;17.90;88.20
24232;DHT22;12364;47.810;8.810;2023-05-10T14:15:56;18.00;88.60
24232;DHT22;12364;47.810;8.810;2023-05-10T14:18:23;18.00;88.70
24232;DHT22;12364;47.810;8.810;2023-05-10T14:20:50;17.90;88.50
24232;DHT22;12364;47.810;8.810;2023-05-10T14:23:17;17.90;89.20
24232;DHT22;12364;47.810;8.810;2023-05-10T14:25:46;17.80;90.10
24232;DHT22;12364;47.810;8.810;2023-05-10T14:28:13;17.90;90.00
24232;DHT22;12364;47.810;8.810;2023-05-10T14:30:40;17.90;90.20
24232;DHT22;12364;47.810;8.810;2023-05-10T14:33:07;17.90;88.60
24232;DHT22;12364;47.810;8.810;2023-05-10T14:35:34;18.00;89.30
24232;DHT22;12364;47.810;8.810;2023-05-10T14:38:02;17.90;90.10
24232;DHT22;12364;47.810;8.810;2023-05-10T14:40:30;18.00;90.00
24232;DHT22;12364;47.810;8.810;2023-05-10T14:42:57;17.80;90.50
24232;DHT22;12364;47.810;8.810;2023-05-10T14:45:24;17.70;90.20
24232;DHT22;12364;47.810;8.810;2023-05-10T14:47:51;17.80;90.80
24232;DHT22;12364;47.810;8.810;2023-05-10T14:50:18;17.80;91.20
24232;DHT22;12364;47.810;8.810;2023-05-10T14:53:02;17.80;91.30
24232;DHT22;12364;47.810;8.810;2023-05-10T14:55:29;17.80;91.50
24232;DHT22;12364;47.810;8.810;2023-05-10T14:57:56;17.90;91.60
24232;DHT22;12364;47.810;8.810;2023-05-10T15:00:25;18.00;91.70
24232;DHT22;12364;47.810;8.810;2023-05-10T15:02:52;18.10;91.50
24232;DHT22;12364;47.810;8.810;2023-05-10T15:05:20;18.10;91.40
24232;DHT22;12364;47.810;8.810;2023-05-10T15:07:48;18.20;91.30
24232;DHT22;12364;47.810;8.810;2023-05-10T15:10:15;18.20;90.80
24232;DHT22;12364;47.810;8.810;2023-05-10T15:12:42;18.10;90.70
24232;DHT22;12364;47.810;8.810;2023-05-10T15:15:09;18.10;90.70
24232;DHT22;12364;47.810;8.810;2023-05-10T15:17:36;18.10;90.70
24232;DHT22;12364;47.810;8.810;2023-05-10T15:20:03;18.00;91.10
24232;DHT22;12364;47.810;8.810;2023-05-10T15:22:30;18.10;90.90
24232;DHT22;12364;47.810;8.810;2023-05-10T15:25:00;18.00;90.70
24232;DHT22;12364;47.810;8.810;2023-05-10T15:27:27;18.00;90.30
24232;DHT22;12364;47.810;8.810;2023-05-10T15:29:54;18.00;90.30
24232;DHT22;12364;47.810;8.810;2023-05-10T15:32:21;17.90;90.00
24232;DHT22;12364;47.810;8.810;2023-05-10T15:34:48;17.80;89.80
24232;DHT22;12364;47.810;8.810;2023-05-10T15:37:15;17.80;90.40
24232;DHT22;12364;47.810;8.810;2023-05-10T15:39:43;17.90;91.10
24232;DHT22;12364;47.810;8.810;2023-05-10T15:42:10;18.00;90.80
24232;DHT22;12364;47.810;8.810;2023-05-10T15:44:37;18.10;91.00
24232;DHT22;12364;47.810;8.810;2023-05-10T15:47:05;18.10;90.40
24232;DHT22;12364;47.810;8.810;2023-05-10T15:49:32;18.20;90.20
24232;DHT22;12364;47.810;8.810;2023-05-10T15:51:59;18.20;90.10
24232;DHT22;12364;47.810;8.810;2023-05-10T15:54:26;18.20;90.00
24232;DHT22;12364;47.810;8.810;2023-05-10T15:56:53;18.30;90.00
24232;DHT22;12364;47.810;8.810;2023-05-10T15:59:21;18.30;90.80
24232;DHT22;12364;47.810;8.810;2023-05-10T16:01:48;18.40;91.00
24232;DHT22;12364;47.810;8.810;2023-05-10T16:04:15;18.50;89.80
24232;DHT22;12364;47.810;8.810;2023-05-10T16:06:43;18.40;88.40
24232;DHT22;12364;47.810;8.810;2023-05-10T16:09:10;18.30;88.70
24232;DHT22;12364;47.810;8.810;2023-05-10T16:11:37;18.40;89.40
24232;DHT22;12364;47.810;8.810;2023-05-10T16:14:04;18.40;88.70
24232;DHT22;12364;47.810;8.810;2023-05-10T16:16:33;18.50;89.10
24232;DHT22;12364;47.810;8.810;2023-05-10T16:19:01;18.40;89.50
24232;DHT22;12364;47.810;8.810;2023-05-10T16:21:29;18.40;88.80
24232;DHT22;12364;47.810;8.810;2023-05-10T16:23:58;18.40;89.90
24232;DHT22;12364;47.810;8.810;2023-05-10T16:26:25;18.40;88.20
24232;DHT22;12364;47.810;8.810;2023-05-10T16:28:52;18.30;88.40
24232;DHT22;12364;47.810;8.810;2023-05-10T16:31:19;18.20;88.50
24232;DHT22;12364;47.810;8.810;2023-05-10T16:33:46;18.20;88.80
24232;DHT22;12364;47.810;8.810;2023-05-10T16:36:13;18.10;88.50
24232;DHT22;12364;47.810;8.810;2023-05-10T16:38:40;18.00;89.30
24232;DHT22;12364;47.810;8.810;2023-05-10T16:41:07;18.00;89.50
24232;DHT22;12364;47.810;8.810;2023-05-10T16:43:34;17.90;88.30
24232;DHT22;12364;47.810;8.810;2023-05-10T16:46:06;17.90;88.30
24232;DHT22;12364;47.810;8.810;2023-05-10T16:48:35;17.80;88.30
24232;DHT22;12364;47.810;8.810;2023-05-10T16:51:02;17.70;88.00
24232;DHT22;12364;47.810;8.810;2023-05-10T16:53:30;17.70;87.10
24232;DHT22;12364;47.810;8.810;2023-05-10T16:55:57;17.70;88.20
24232;DHT22;12364;47.810;8.810;2023-05-10T16:58:24;17.70;88.10
24232;DHT22;12364;47.810;8.810;2023-05-10T17:00:51;17.60;87.90
24232;DHT22;12364;47.810;8.810;2023-05-10T17:03:18;17.60;88.50
24232;DHT22;12364;47.810;8.810;2023-05-10T17:05:45;17.60;88.30
24232;DHT22;12364;47.810;8.810;2023-05-10T17:08:12;17.60;88.40
24232;DHT22;12364;47.810;8.810;2023-05-10T17:10:39;17.70;88.70
24232;DHT22;12364;47.810;8.810;2023-05-10T17:13:07;17.80;88.80
24232;DHT22;12364;47.810;8.810;2023-05-10T17:15:37;17.70;89.20
24232;DHT22;12364;47.810;8.810;2023-05-10T17:18:04;17.70;89.20
24232;DHT22;12364;47.810;8.810;2023-05-10T17:20:32;17.70;89.90
24232;DHT22;12364;47.810;8.810;2023-05-10T17:22:59;17.80;90.10
24232;DHT22;12364;47.810;8.810;2023-05-10T17:25:28;17.80;90.10
24232;DHT22;12364;47.810;8.810;2023-05-10T17:27:55;17.80;90.10
24232;DHT22;12364;47.810;8.810;2023-05-10T17:30:22;17.90;90.10
24232;DHT22;12364;47.810;8.810;2023-05-10T17:32:52;17.90;90.10
24232;DHT22;12364;47.810;8.810;2023-05-10T17:35:20;17.90;90.00
24232;DHT22;12364;47.810;8.810;2023-05-10T17:37:47;17.80;89.80
24232;DHT22;12364;47.810;8.810;2023-05-10T17:40:14;17.90;90.00
24232;DHT22;12364;47.810;8.810;2023-05-10T17:42:41;17.90;90.00
24232;DHT22;12364;47.810;8.810;2023-05-10T17:45:08;17.90;89.70
24232;DHT22;12364;47.810;8.810;2023-05-10T17:47:37;17.90;90.00
24232;DHT22;12364;47.810;8.810;2023-05-10T17:50:04;17.90;90.20
24232;DHT22;12364;47.810;8.810;2023-05-10T17:52:32;17.90;89.80
24232;DHT22;12364;47.810;8.810;2023-05-10T17:54:59;17.90;90.00
24232;DHT22;12364;47.810;8.810;2023-05-10T17:57:26;18.00;89.80
24232;DHT22;12364;47.810;8.810;2023-05-10T17:59:53;18.00;89.80
24232;DHT22;12364;47.810;8.810;2023-05-10T18:02:20;18.00;90.30
24232;DHT22;12364;47.810;8.810;2023-05-10T18:04:47;18.00;90.30
24232;DHT22;12364;47.810;8.810;2023-05-10T18:07:15;18.20;90.60
24232;DHT22;12364;47.810;8.810;2023-05-10T18:09:42;18.00;90.80
24232;DHT22;12364;47.810;8.810;2023-05-10T18:12:09;18.00;90.90
24232;DHT22;12364;47.810;8.810;2023-05-10T18:14:36;18.10;91.20
24232;DHT22;12364;47.810;8.810;2023-05-10T18:17:07;18.00;90.10
24232;DHT22;12364;47.810;8.810;2023-05-10T18:19:35;17.90;89.50
24232;DHT22;12364;47.810;8.810;2023-05-10T18:22:02;17.90;90.00
24232;DHT22;12364;47.810;8.810;2023-05-10T18:24:29;17.90;90.00
24232;DHT22;12364;47.810;8.810;2023-05-10T18:27:07;17.80;90.00
24232;DHT22;12364;47.810;8.810;2023-05-10T18:29:34;17.80;89.80
24232;DHT22;12364;47.810;8.810;2023-05-10T18:32:02;17.70;89.10
24232;DHT22;12364;47.810;8.810;2023-05-10T18:34:29;17.70;89.10
24232;DHT22;12364;47.810;8.810;2023-05-10T18:36:56;17.70;89.40
24232;DHT22;12364;47.810;8.810;2023-05-10T18:39:23;17.50;89.50
24232;DHT22;12364;47.810;8.810;2023-05-10T18:41:50;17.80;90.00
24232;DHT22;12364;47.810;8.810;2023-05-10T18:44:17;17.60;90.00
24232;DHT22;12364;47.810;8.810;2023-05-10T18:46:45;17.60;90.00
24232;DHT22;12364;47.810;8.810;2023-05-10T18:49:12;17.70;90.30
24232;DHT22;12364;47.810;8.810;2023-05-10T18:51:39;17.80;90.80
24232;DHT22;12364;47.810;8.810;2023-05-10T18:54:06;17.70;90.50
24232;DHT22;12364;47.810;8.810;2023-05-10T18:56:33;17.70;90.00
24232;DHT22;12364;47.810;8.810;2023-05-10T18:59:00;17.70;89.90
24232;DHT22;12364;47.810;8.810;2023-05-10T19:01:27;17.70;90.00
24232;DHT22;12364;47.810;8.810;2023-05-10T19:03:54;17.60;90.00
24232;DHT22;12364;47.810;8.810;2023-05-10T19:06:22;17.60;89.10
24232;DHT22;12364;47.810;8.810;2023-05-10T19:08:49;17.50;88.40
24232;DHT22;12364;47.810;8.810;2023-05-10T19:11:16;17.50;88.90
24232;DHT22;12364;47.810;8.810;2023-05-10T19:13:43;17.40;89.50
24232;DHT22;12364;47.810;8.810;2023-05-10T19:16:11;17.40;89.10
24232;DHT22;12364;47.810;8.810;2023-05-10T19:18:40;17.40;88.80
24232;DHT22;12364;47.810;8.810;2023-05-10T19:21:08;17.30;89.10
24232;DHT22;12364;47.810;8.810;2023-05-10T19:23:36;17.30;88.60
24232;DHT22;12364;47.810;8.810;2023-05-10T19:26:05;17.40;89.10
24232;DHT22;12364;47.810;8.810;2023-05-10T19:28:32;17.30;88.40
24232;DHT22;12364;47.810;8.810;2023-05-10T19:31:00;17.20;88.50
24232;DHT22;12364;47.810;8.810;2023-05-10T19:33:27;17.10;88.70